sensor_id;sensor_type;location;lat;lon;timestamp;pressure;altitude;pressure_sealevel;temperature;humidity
71917;BME280;59793;46.506;6.674;2024-01-30T00:00:54;98654.81;;;6.92;71.32
71917;BME280;59793;46.506;6.674;2024-01-30T00:03:19;98661.69;;;6.88;71.82
71917;BME280;59793;46.506;6.674;2024-01-30T00:05:45;98653.66;;;6.79;71.41
71917;BME280;59793;46.506;6.674;2024-01-30T00:08:10;98637.72;;;6.70;71.22
71917;BME280;59793;46.506;6.674;2024-01-30T00:10:36;98619.03;;;6.53;71.92
71917;BME280;59793;46.506;6.674;2024-01-30T00:13:01;98646.75;;;6.59;72.46
71917;BME280;59793;46.506;6.674;2024-01-30T00:15:27;98640.81;;;6.49;72.86
71917;BME280;59793;46.506;6.674;2024-01-30T00:17:53;98634.03;;;6.42;73.42
71917;BME280;59793;46.506;6.674;2024-01-30T00:20:18;98624.88;;;6.45;73.12
71917;BME280;59793;46.506;6.674;2024-01-30T00:22:44;98633.50;;;6.45;73.37
71917;BME280;59793;46.506;6.674;2024-01-30T00:25:09;98644.66;;;6.56;73.10
71917;BME280;59793;46.506;6.674;2024-01-30T00:27:35;98650.84;;;6.70;72.10
71917;BME280;59793;46.506;6.674;2024-01-30T00:30:00;98638.06;;;6.64;72.05
71917;BME280;59793;46.506;6.674;2024-01-30T00:32:26;98655.97;;;6.81;71.82
71917;BME280;59793;46.506;6.674;2024-01-30T00:34:51;98602.00;;;6.56;71.88
71917;BME280;59793;46.506;6.674;2024-01-30T00:37:17;98643.41;;;6.83;72.71
71917;BME280;59793;46.506;6.674;2024-01-30T00:39:42;98666.84;;;6.98;72.52
71917;BME280;59793;46.506;6.674;2024-01-30T00:42:07;98652.88;;;6.79;72.38
71917;BME280;59793;46.506;6.674;2024-01-30T00:44:35;98676.72;;;6.77;72.39
71917;BME280;59793;46.506;6.674;2024-01-30T00:47:02;98668.81;;;6.48;73.02
71917;BME280;59793;46.506;6.674;2024-01-30T00:49:28;98685.00;;;6.55;73.58
71917;BME280;59793;46.506;6.674;2024-01-30T00:51:53;98669.88;;;6.47;73.29
71917;BME280;59793;46.506;6.674;2024-01-30T00:54:18;98636.53;;;6.23;73.43
71917;BME280;59793;46.506;6.674;2024-01-30T00:56:44;98677.38;;;6.59;73.10
71917;BME280;59793;46.506;6.674;2024-01-30T00:59:11;98681.25;;;6.66;74.06
71917;BME280;59793;46.506;6.674;2024-01-30T01:01:36;98655.13;;;6.56;74.47
71917;BME280;59793;46.506;6.674;2024-01-30T01:04:02;98660.06;;;6.63;74.20
71917;BME280;59793;46.506;6.674;2024-01-30T01:06:27;98622.75;;;6.47;74.27
71917;BME280;59793;46.506;6.674;2024-01-30T01:08:52;98644.25;;;6.44;74.13
71917;BME280;59793;46.506;6.674;2024-01-30T01:11:18;98677.63;;;6.62;73.80
71917;BME280;59793;46.506;6.674;2024-01-30T01:13:43;98676.31;;;6.60;74.23
71917;BME280;59793;46.506;6.674;2024-01-30T01:16:09;98643.25;;;6.40;73.94
71917;BME280;59793;46.506;6.674;2024-01-30T01:18:34;98652.94;;;6.34;74.04
71917;BME280;59793;46.506;6.674;2024-01-30T01:20:59;98640.47;;;6.21;73.71
71917;BME280;59793;46.506;6.674;2024-01-30T01:23:25;98635.72;;;6.28;74.07
71917;BME280;59793;46.506;6.674;2024-01-30T01:25:51;98636.25;;;6.30;74.42
71917;BME280;59793;46.506;6.674;2024-01-30T01:28:16;98620.91;;;6.13;74.17
71917;BME280;59793;46.506;6.674;2024-01-30T01:30:42;98671.00;;;6.36;74.52
71917;BME280;59793;46.506;6.674;2024-01-30T01:33:07;98638.22;;;6.09;74.37
71917;BME280;59793;46.506;6.674;2024-01-30T01:35:32;98671.75;;;6.41;74.12
71917;BME280;59793;46.506;6.674;2024-01-30T01:37:58;98651.22;;;6.19;74.25
71917;BME280;59793;46.506;6.674;2024-01-30T01:40:25;98673.78;;;6.50;73.75
71917;BME280;59793;46.506;6.674;2024-01-30T01:42:51;98669.38;;;6.45;73.74
71917;BME280;59793;46.506;6.674;2024-01-30T01:45:17;98653.00;;;6.29;74.91
71917;BME280;59793;46.506;6.674;2024-01-30T01:47:43;98674.22;;;6.62;75.08
71917;BME280;59793;46.506;6.674;2024-01-30T01:50:15;98663.50;;;6.58;75.60
71917;BME280;59793;46.506;6.674;2024-01-30T01:52:43;98671.38;;;6.58;76.15
71917;BME280;59793;46.506;6.674;2024-01-30T01:55:09;98620.22;;;6.37;75.44
71917;BME280;59793;46.506;6.674;2024-01-30T01:57:35;98631.94;;;6.44;75.67
71917;BME280;59793;46.506;6.674;2024-01-30T02:00:01;98672.31;;;6.73;75.39
71917;BME280;59793;46.506;6.674;2024-01-30T02:02:30;98647.81;;;6.58;74.82
71917;BME280;59793;46.506;6.674;2024-01-30T02:04:57;98660.75;;;6.74;74.70
71917;BME280;59793;46.506;6.674;2024-01-30T02:07:24;98654.59;;;6.59;74.88
71917;BME280;59793;46.506;6.674;2024-01-30T02:09:49;98633.50;;;6.45;74.07
71917;BME280;59793;46.506;6.674;2024-01-30T02:12:14;98667.69;;;6.59;74.56
71917;BME280;59793;46.506;6.674;2024-01-30T02:14:46;98632.72;;;6.45;74.47
71917;BME280;59793;46.506;6.674;2024-01-30T02:17:12;98627.59;;;6.30;74.94
71917;BME280;59793;46.506;6.674;2024-01-30T02:19:38;98658.97;;;6.35;75.85
71917;BME280;59793;46.506;6.674;2024-01-30T02:22:04;98655.22;;;6.46;75.54
71917;BME280;59793;46.506;6.674;2024-01-30T02:24:29;98669.81;;;6.57;75.73
71917;BME280;59793;46.506;6.674;2024-01-30T02:26:55;98636.88;;;6.51;76.02
71917;BME280;59793;46.506;6.674;2024-01-30T02:29:20;98628.50;;;6.49;75.72
71917;BME280;59793;46.506;6.674;2024-01-30T02:31:46;98623.34;;;6.39;75.82
71917;BME280;59793;46.506;6.674;2024-01-30T02:34:11;98639.31;;;6.37;76.06
71917;BME280;59793;46.506;6.674;2024-01-30T02:36:37;98650.44;;;6.53;75.87
71917;BME280;59793;46.506;6.674;2024-01-30T02:39:03;98625.63;;;6.45;75.11
71917;BME280;59793;46.506;6.674;2024-01-30T02:41:28;98648.34;;;6.55;75.10
71917;BME280;59793;46.506;6.674;2024-01-30T02:43:54;98628.09;;;6.32;74.53
71917;BME280;59793;46.506;6.674;2024-01-30T02:46:19;98664.06;;;6.55;74.45
71917;BME280;59793;46.506;6.674;2024-01-30T02:48:45;98637.47;;;6.38;74.76
71917;BME280;59793;46.506;6.674;2024-01-30T02:51:10;98629.94;;;6.31;75.25
71917;BME280;59793;46.506;6.674;2024-01-30T02:53:35;98647.66;;;6.44;75.01
71917;BME280;59793;46.506;6.674;2024-01-30T02:56:02;98619.28;;;6.22;75.70
71917;BME280;59793;46.506;6.674;2024-01-30T02:58:29;98649.97;;;6.46;76.26
71917;BME280;59793;46.506;6.674;2024-01-30T03:00:54;98623.97;;;6.26;76.44
71917;BME280;59793;46.506;6.674;2024-01-30T03:03:19;98647.44;;;6.36;76.33
71917;BME280;59793;46.506;6.674;2024-01-30T03:05:45;98602.41;;;6.05;76.56
71917;BME280;59793;46.506;6.674;2024-01-30T03:08:10;98643.25;;;6.40;76.83
71917;BME280;59793;46.506;6.674;2024-01-30T03:10:35;98603.91;;;6.16;76.64
71917;BME280;59793;46.506;6.674;2024-01-30T03:13:01;98612.00;;;6.14;77.10
71917;BME280;59793;46.506;6.674;2024-01-30T03:15:26;98601.53;;;6.14;77.96
71917;BME280;59793;46.506;6.674;2024-01-30T03:17:53;98614.06;;;6.22;77.70
71917;BME280;59793;46.506;6.674;2024-01-30T03:20:19;98647.38;;;6.46;78.02
71917;BME280;59793;46.506;6.674;2024-01-30T03:22:44;98649.97;;;6.46;78.00
71917;BME280;59793;46.506;6.674;2024-01-30T03:25:10;98617.41;;;6.28;78.21
71917;BME280;59793;46.506;6.674;2024-01-30T03:27:35;98607.22;;;6.21;78.61
71917;BME280;59793;46.506;6.674;2024-01-30T03:30:01;98651.47;;;6.57;78.65
71917;BME280;59793;46.506;6.674;2024-01-30T03:32:27;98622.53;;;6.43;78.87
71917;BME280;59793;46.506;6.674;2024-01-30T03:34:52;98631.63;;;6.51;79.15
71917;BME280;59793;46.506;6.674;2024-01-30T03:37:17;98627.94;;;6.52;79.18
71917;BME280;59793;46.506;6.674;2024-01-30T03:39:43;98604.84;;;6.25;78.35
71917;BME280;59793;46.506;6.674;2024-01-30T03:42:08;98585.34;;;6.07;77.95
71917;BME280;59793;46.506;6.674;2024-01-30T03:44:33;98609.63;;;6.18;77.90
71917;BME280;59793;46.506;6.674;2024-01-30T03:46:59;98598.41;;;6.12;77.82
71917;BME280;59793;46.506;6.674;2024-01-30T03:49:24;98605.03;;;5.99;79.43
71917;BME280;59793;46.506;6.674;2024-01-30T03:51:49;98615.69;;;6.13;79.42
71917;BME280;59793;46.506;6.674;2024-01-30T03:54:15;98577.34;;;5.88;79.81
71917;BME280;59793;46.506;6.674;2024-01-30T03:56:40;98583.88;;;5.91;79.78
71917;BME280;59793;46.506;6.674;2024-01-30T03:59:05;98634.69;;;6.29;79.67
71917;BME280;59793;46.506;6.674;2024-01-30T04:01:31;98592.44;;;6.07;78.96
71917;BME280;59793;46.506;6.674;2024-01-30T04:03:56;98635.66;;;6.38;78.63
71917;BME280;59793;46.506;6.674;2024-01-30T04:06:21;98625.41;;;6.42;78.63
71917;BME280;59793;46.506;6.674;2024-01-30T04:08:47;98642.66;;;6.48;78.59
71917;BME280;59793;46.506;6.674;2024-01-30T04:11:12;98638.47;;;6.47;78.62
71917;BME280;59793;46.506;6.674;2024-01-30T04:13:37;98600.50;;;6.15;78.59
71917;BME280;59793;46.506;6.674;2024-01-30T04:16:03;98637.53;;;6.33;78.83
71917;BME280;59793;46.506;6.674;2024-01-30T04:18:29;98636.34;;;6.15;78.45
71917;BME280;59793;46.506;6.674;2024-01-30T04:20:54;98620.44;;;6.06;78.05
71917;BME280;59793;46.506;6.674;2024-01-30T04:23:20;98617.38;;;5.94;78.06
71917;BME280;59793;46.506;6.674;2024-01-30T04:25:45;98621.81;;;5.88;78.70
71917;BME280;59793;46.506;6.674;2024-01-30T04:28:12;98633.56;;;6.01;78.66
71917;BME280;59793;46.506;6.674;2024-01-30T04:30:38;98586.91;;;5.69;78.78
71917;BME280;59793;46.506;6.674;2024-01-30T04:33:03;98615.81;;;5.83;79.27
71917;BME280;59793;46.506;6.674;2024-01-30T04:35:29;98641.91;;;6.03;79.38
71917;BME280;59793;46.506;6.674;2024-01-30T04:37:54;98655.53;;;6.00;79.38
71917;BME280;59793;46.506;6.674;2024-01-30T04:40:20;98613.06;;;5.64;78.71
71917;BME280;59793;46.506;6.674;2024-01-30T04:42:46;98622.75;;;5.63;78.92
71917;BME280;59793;46.506;6.674;2024-01-30T04:45:12;98635.81;;;5.58;78.52
71917;BME280;59793;46.506;6.674;2024-01-30T04:47:37;98645.75;;;5.66;79.03
71917;BME280;59793;46.506;6.674;2024-01-30T04:50:04;98638.66;;;5.67;78.86
71917;BME280;59793;46.506;6.674;2024-01-30T04:52:30;98615.44;;;5.60;78.73
71917;BME280;59793;46.506;6.674;2024-01-30T04:54:56;98645.16;;;5.80;78.48
71917;BME280;59793;46.506;6.674;2024-01-30T04:57:22;98612.03;;;5.60;78.48
71917;BME280;59793;46.506;6.674;2024-01-30T04:59:47;98663.38;;;5.90;78.34
71917;BME280;59793;46.506;6.674;2024-01-30T05:02:12;98634.47;;;5.71;79.05
71917;BME280;59793;46.506;6.674;2024-01-30T05:04:38;98637.56;;;5.83;78.80
71917;BME280;59793;46.506;6.674;2024-01-30T05:07:03;98655.50;;;6.05;79.06
71917;BME280;59793;46.506;6.674;2024-01-30T05:09:29;98601.78;;;5.68;78.77
71917;BME280;59793;46.506;6.674;2024-01-30T05:11:54;98643.78;;;5.92;78.94
71917;BME280;59793;46.506;6.674;2024-01-30T05:14:20;98660.25;;;5.98;78.73
71917;BME280;59793;46.506;6.674;2024-01-30T05:16:45;98632.63;;;5.77;78.72
71917;BME280;59793;46.506;6.674;2024-01-30T05:19:13;98636.06;;;5.67;79.50
71917;BME280;59793;46.506;6.674;2024-01-30T05:21:39;98674.47;;;5.77;79.56
71917;BME280;59793;46.506;6.674;2024-01-30T05:24:05;98664.88;;;5.51;79.23
71917;BME280;59793;46.506;6.674;2024-01-30T05:26:30;98644.59;;;5.23;79.90
71917;BME280;59793;46.506;6.674;2024-01-30T05:28:55;98677.16;;;5.51;79.93
71917;BME280;59793;46.506;6.674;2024-01-30T05:31:21;98638.03;;;5.31;79.80
71917;BME280;59793;46.506;6.674;2024-01-30T05:33:46;98649.75;;;5.43;79.27
71917;BME280;59793;46.506;6.674;2024-01-30T05:36:12;98658.59;;;5.47;78.77
71917;BME280;59793;46.506;6.674;2024-01-30T05:38:38;98691.53;;;5.54;79.82
71917;BME280;59793;46.506;6.674;2024-01-30T05:41:04;98648.47;;;5.36;79.90
71917;BME280;59793;46.506;6.674;2024-01-30T05:43:29;98680.78;;;5.60;79.91
71917;BME280;59793;46.506;6.674;2024-01-30T05:45:54;98647.44;;;5.32;80.41
71917;BME280;59793;46.506;6.674;2024-01-30T05:48:20;98695.13;;;5.68;79.34
71917;BME280;59793;46.506;6.674;2024-01-30T05:50:46;98693.81;;;5.65;79.27
71917;BME280;59793;46.506;6.674;2024-01-30T05:53:11;98668.28;;;5.52;79.41
71917;BME280;59793;46.506;6.674;2024-01-30T05:55:37;98665.13;;;5.55;78.79
71917;BME280;59793;46.506;6.674;2024-01-30T05:58:02;98641.72;;;5.24;79.03
71917;BME280;59793;46.506;6.674;2024-01-30T06:00:29;98697.78;;;5.58;79.34
71917;BME280;59793;46.506;6.674;2024-01-30T06:02:54;98642.75;;;5.28;78.80
71917;BME280;59793;46.506;6.674;2024-01-30T06:05:20;98698.53;;;5.68;78.74
71917;BME280;59793;46.506;6.674;2024-01-30T06:07:45;98678.69;;;5.62;78.81
71917;BME280;59793;46.506;6.674;2024-01-30T06:10:10;98697.47;;;5.74;78.88
71917;BME280;59793;46.506;6.674;2024-01-30T06:12:36;98714.91;;;5.89;78.79
71917;BME280;59793;46.506;6.674;2024-01-30T06:15:02;98673.72;;;5.66;79.20
71917;BME280;59793;46.506;6.674;2024-01-30T06:17:28;98655.22;;;5.47;79.55
71917;BME280;59793;46.506;6.674;2024-01-30T06:19:53;98668.28;;;5.52;79.70
71917;BME280;59793;46.506;6.674;2024-01-30T06:22:18;98690.72;;;5.63;79.84
71917;BME280;59793;46.506;6.674;2024-01-30T06:24:44;98710.06;;;5.57;79.58
71917;BME280;59793;46.506;6.674;2024-01-30T06:27:15;98720.81;;;5.50;80.53
71917;BME280;59793;46.506;6.674;2024-01-30T06:29:42;98717.69;;;5.43;80.79
71917;BME280;59793;46.506;6.674;2024-01-30T06:32:08;98715.34;;;5.52;80.44
71917;BME280;59793;46.506;6.674;2024-01-30T06:34:33;98679.06;;;5.25;80.09
71917;BME280;59793;46.506;6.674;2024-01-30T06:36:59;98696.53;;;5.40;80.25
71917;BME280;59793;46.506;6.674;2024-01-30T06:39:24;98708.78;;;5.60;79.66
71917;BME280;59793;46.506;6.674;2024-01-30T06:41:50;98686.59;;;5.47;79.53
71917;BME280;59793;46.506;6.674;2024-01-30T06:44:15;98723.66;;;5.64;79.79
71917;BME280;59793;46.506;6.674;2024-01-30T06:46:41;98688.69;;;5.40;80.14
71917;BME280;59793;46.506;6.674;2024-01-30T06:49:06;98708.50;;;5.61;80.04
71917;BME280;59793;46.506;6.674;2024-01-30T06:51:31;98691.56;;;5.48;80.48
71917;BME280;59793;46.506;6.674;2024-01-30T06:53:57;98697.50;;;5.64;79.92
71917;BME280;59793;46.506;6.674;2024-01-30T06:56:22;98668.31;;;5.42;80.06
71917;BME280;59793;46.506;6.674;2024-01-30T06:58:48;98715.56;;;5.66;79.90
71917;BME280;59793;46.506;6.674;2024-01-30T07:01:14;98741.38;;;5.83;80.15
71917;BME280;59793;46.506;6.674;2024-01-30T07:03:40;98717.88;;;5.72;80.52
71917;BME280;59793;46.506;6.674;2024-01-30T07:06:05;98737.44;;;5.90;79.71
71917;BME280;59793;46.506;6.674;2024-01-30T07:08:31;98731.16;;;5.86;79.29
71917;BME280;59793;46.506;6.674;2024-01-30T07:10:56;98734.06;;;5.80;79.53
71917;BME280;59793;46.506;6.674;2024-01-30T07:13:21;98697.34;;;5.35;80.20
71917;BME280;59793;46.506;6.674;2024-01-30T07:15:47;98713.47;;;5.63;79.46
71917;BME280;59793;46.506;6.674;2024-01-30T07:18:12;98709.81;;;5.54;79.76
71917;BME280;59793;46.506;6.674;2024-01-30T07:20:39;98733.59;;;5.62;80.33
71917;BME280;59793;46.506;6.674;2024-01-30T07:23:11;98725.69;;;5.78;79.99
71917;BME280;59793;46.506;6.674;2024-01-30T07:25:41;98758.59;;;5.99;79.90
71917;BME280;59793;46.506;6.674;2024-01-30T07:28:09;98747.06;;;6.05;79.30
71917;BME280;59793;46.506;6.674;2024-01-30T07:30:36;98768.41;;;6.28;78.93
71917;BME280;59793;46.506;6.674;2024-01-30T07:33:01;98722.19;;;6.08;78.23
71917;BME280;59793;46.506;6.674;2024-01-30T07:35:27;98741.50;;;6.22;77.99
71917;BME280;59793;46.506;6.674;2024-01-30T07:37:53;98729.97;;;6.23;78.10
71917;BME280;59793;46.506;6.674;2024-01-30T07:40:18;98706.91;;;6.25;77.89
71917;BME280;59793;46.506;6.674;2024-01-30T07:42:43;98755.91;;;6.64;77.99
71917;BME280;59793;46.506;6.674;2024-01-30T07:45:09;98748.13;;;6.93;76.69
71917;BME280;59793;46.506;6.674;2024-01-30T07:47:34;98733.00;;;7.38;74.26
71917;BME280;59793;46.506;6.674;2024-01-30T07:50:00;98784.72;;;8.09;72.69
71917;BME280;59793;46.506;6.674;2024-01-30T07:52:25;98776.84;;;8.52;70.32
71917;BME280;59793;46.506;6.674;2024-01-30T07:54:51;98772.16;;;9.01;69.09
71917;BME280;59793;46.506;6.674;2024-01-30T07:57:17;98768.75;;;9.33;67.90
71917;BME280;59793;46.506;6.674;2024-01-30T07:59:43;98768.69;;;9.66;66.50
71917;BME280;59793;46.506;6.674;2024-01-30T08:02:14;98765.31;;;9.79;66.73
71917;BME280;59793;46.506;6.674;2024-01-30T08:04:39;98783.31;;;9.86;65.94
71917;BME280;59793;46.506;6.674;2024-01-30T08:07:05;98787.34;;;9.83;66.24
71917;BME280;59793;46.506;6.674;2024-01-30T08:09:30;98745.72;;;9.11;66.66
71917;BME280;59793;46.506;6.674;2024-01-30T08:11:56;98776.44;;;9.43;66.79
71917;BME280;59793;46.506;6.674;2024-01-30T08:14:21;98748.56;;;9.28;67.36
71917;BME280;59793;46.506;6.674;2024-01-30T08:16:47;98762.91;;;9.36;67.62
71917;BME280;59793;46.506;6.674;2024-01-30T08:19:12;98791.88;;;9.50;67.85
71917;BME280;59793;46.506;6.674;2024-01-30T08:21:38;98767.94;;;9.19;68.18
71917;BME280;59793;46.506;6.674;2024-01-30T08:24:04;98800.44;;;9.09;69.31
71917;BME280;59793;46.506;6.674;2024-01-30T08:26:30;98788.28;;;9.13;68.35
71917;BME280;59793;46.506;6.674;2024-01-30T08:28:56;98801.44;;;9.13;67.98
71917;BME280;59793;46.506;6.674;2024-01-30T08:31:21;98756.22;;;8.78;68.80
71917;BME280;59793;46.506;6.674;2024-01-30T08:33:46;98759.25;;;8.85;68.57
71917;BME280;59793;46.506;6.674;2024-01-30T08:36:12;98772.47;;;8.99;68.55
71917;BME280;59793;46.506;6.674;2024-01-30T08:38:37;98766.38;;;9.18;68.13
71917;BME280;59793;46.506;6.674;2024-01-30T08:41:02;98786.31;;;9.38;67.75
71917;BME280;59793;46.506;6.674;2024-01-30T08:43:28;98802.69;;;9.48;67.34
71917;BME280;59793;46.506;6.674;2024-01-30T08:45:53;98789.97;;;9.23;68.06
71917;BME280;59793;46.506;6.674;2024-01-30T08:48:19;98790.66;;;8.96;69.27
71917;BME280;59793;46.506;6.674;2024-01-30T08:50:44;98787.16;;;9.00;69.33
71917;BME280;59793;46.506;6.674;2024-01-30T08:53:09;98793.72;;;8.84;69.54
71917;BME280;59793;46.506;6.674;2024-01-30T08:55:35;98808.34;;;8.90;70.05
71917;BME280;59793;46.506;6.674;2024-01-30T08:58:00;98797.09;;;9.03;69.79
71917;BME280;59793;46.506;6.674;2024-01-30T09:00:26;98811.00;;;9.23;70.46
71917;BME280;59793;46.506;6.674;2024-01-30T09:02:51;98787.91;;;9.20;70.00
71917;BME280;59793;46.506;6.674;2024-01-30T09:05:16;98783.13;;;9.54;68.72
71917;BME280;59793;46.506;6.674;2024-01-30T09:07:42;98803.22;;;9.92;67.25
71917;BME280;59793;46.506;6.674;2024-01-30T09:10:07;98763.91;;;9.68;68.08
71917;BME280;59793;46.506;6.674;2024-01-30T09:12:32;98804.88;;;10.01;67.57
71917;BME280;59793;46.506;6.674;2024-01-30T09:14:58;98785.94;;;9.58;67.57
71917;BME280;59793;46.506;6.674;2024-01-30T09:17:23;98800.53;;;9.50;69.19
71917;BME280;59793;46.506;6.674;2024-01-30T09:19:48;98803.09;;;9.55;68.72
71917;BME280;59793;46.506;6.674;2024-01-30T09:22:14;98785.16;;;9.57;68.73
71917;BME280;59793;46.506;6.674;2024-01-30T09:24:40;98801.53;;;9.82;68.37
71917;BME280;59793;46.506;6.674;2024-01-30T09:27:05;98766.84;;;9.52;68.17
71917;BME280;59793;46.506;6.674;2024-01-30T09:29:31;98779.59;;;9.59;68.63
71917;BME280;59793;46.506;6.674;2024-01-30T09:31:59;98769.97;;;9.54;68.38
71917;BME280;59793;46.506;6.674;2024-01-30T09:34:25;98798.97;;;9.49;69.03
71917;BME280;59793;46.506;6.674;2024-01-30T09:36:50;98737.56;;;8.61;70.89
71917;BME280;59793;46.506;6.674;2024-01-30T09:39:16;98804.47;;;9.20;70.76
71917;BME280;59793;46.506;6.674;2024-01-30T09:41:48;98791.03;;;9.22;70.17
71917;BME280;59793;46.506;6.674;2024-01-30T09:44:16;98778.09;;;9.39;70.60
71917;BME280;59793;46.506;6.674;2024-01-30T09:46:42;98818.63;;;9.98;68.80
71917;BME280;59793;46.506;6.674;2024-01-30T09:49:08;98813.94;;;10.09;68.53
71917;BME280;59793;46.506;6.674;2024-01-30T09:51:34;98814.41;;;10.52;66.51
71917;BME280;59793;46.506;6.674;2024-01-30T09:54:01;98780.13;;;10.52;65.31
71917;BME280;59793;46.506;6.674;2024-01-30T09:56:28;98821.53;;;10.88;64.89
71917;BME280;59793;46.506;6.674;2024-01-30T09:58:54;98823.50;;;10.83;64.88
71917;BME280;59793;46.506;6.674;2024-01-30T10:01:19;98823.47;;;10.60;65.93
71917;BME280;59793;46.506;6.674;2024-01-30T10:03:45;98787.28;;;10.38;65.11
71917;BME280;59793;46.506;6.674;2024-01-30T10:06:11;98813.06;;;10.77;65.44
71917;BME280;59793;46.506;6.674;2024-01-30T10:08:37;98818.69;;;10.85;64.28
71917;BME280;59793;46.506;6.674;2024-01-30T10:11:03;98807.34;;;10.62;64.75
71917;BME280;59793;46.506;6.674;2024-01-30T10:13:29;98807.69;;;10.19;66.53
71917;BME280;59793;46.506;6.674;2024-01-30T10:15:54;98831.38;;;10.60;65.65
71917;BME280;59793;46.506;6.674;2024-01-30T10:18:22;98804.97;;;10.38;66.04
71917;BME280;59793;46.506;6.674;2024-01-30T10:20:51;98831.00;;;10.12;66.84
71917;BME280;59793;46.506;6.674;2024-01-30T10:23:16;98819.31;;;9.90;68.10
71917;BME280;59793;46.506;6.674;2024-01-30T10:25:43;98803.13;;;9.97;67.66
71917;BME280;59793;46.506;6.674;2024-01-30T10:28:09;98819.97;;;10.51;67.24
71917;BME280;59793;46.506;6.674;2024-01-30T10:30:34;98822.25;;;11.25;64.77
71917;BME280;59793;46.506;6.674;2024-01-30T10:33:00;98805.03;;;11.59;63.61
71917;BME280;59793;46.506;6.674;2024-01-30T10:35:25;98812.78;;;11.55;63.27
71917;BME280;59793;46.506;6.674;2024-01-30T10:37:51;98811.25;;;11.85;61.53
71917;BME280;59793;46.506;6.674;2024-01-30T10:40:21;98795.31;;;11.68;61.72
71917;BME280;59793;46.506;6.674;2024-01-30T10:42:47;98769.94;;;11.27;62.42
71917;BME280;59793;46.506;6.674;2024-01-30T10:45:14;98810.03;;;11.29;63.19
71917;BME280;59793;46.506;6.674;2024-01-30T10:47:49;98790.25;;;10.95;63.97
71917;BME280;59793;46.506;6.674;2024-01-30T10:50:15;98816.88;;;11.08;63.94
71917;BME280;59793;46.506;6.674;2024-01-30T10:52:41;98812.69;;;11.07;64.76
71917;BME280;59793;46.506;6.674;2024-01-30T10:55:07;98806.03;;;11.40;63.71
71917;BME280;59793;46.506;6.674;2024-01-30T10:57:34;98794.25;;;11.38;63.72
71917;BME280;59793;46.506;6.674;2024-01-30T11:00:02;98802.38;;;11.50;62.76
71917;BME280;59793;46.506;6.674;2024-01-30T11:02:36;98770.84;;;11.14;64.24
71917;BME280;59793;46.506;6.674;2024-01-30T11:05:04;98779.69;;;11.80;61.82
71917;BME280;59793;46.506;6.674;2024-01-30T11:07:30;98785.84;;;11.98;61.82
71917;BME280;59793;46.506;6.674;2024-01-30T11:12:26;98755.22;;;11.66;61.67
71917;BME280;59793;46.506;6.674;2024-01-30T11:15:13;98778.22;;;11.65;62.46
71917;BME280;59793;46.506;6.674;2024-01-30T11:22:45;98769.78;;;11.55;62.70
71917;BME280;59793;46.506;6.674;2024-01-30T11:25:15;98773.50;;;11.54;63.22
71917;BME280;59793;46.506;6.674;2024-01-30T11:27:42;98756.94;;;11.31;63.40
71917;BME280;59793;46.506;6.674;2024-01-30T11:30:08;98753.53;;;11.30;63.97
71917;BME280;59793;46.506;6.674;2024-01-30T11:32:33;98735.09;;;11.08;63.92
71917;BME280;59793;46.506;6.674;2024-01-30T11:34:59;98744.09;;;10.84;64.50
71917;BME280;59793;46.506;6.674;2024-01-30T11:37:25;98763.97;;;11.13;64.53
71917;BME280;59793;46.506;6.674;2024-01-30T11:39:53;98736.31;;;11.01;63.06
71917;BME280;59793;46.506;6.674;2024-01-30T11:42:19;98775.06;;;11.23;64.26
71917;BME280;59793;46.506;6.674;2024-01-30T11:44:47;98763.41;;;10.93;65.33
71917;BME280;59793;46.506;6.674;2024-01-30T11:47:14;98755.22;;;10.59;65.60
71917;BME280;59793;46.506;6.674;2024-01-30T11:49:39;98778.59;;;10.24;67.69
71917;BME280;59793;46.506;6.674;2024-01-30T11:52:05;98767.03;;;9.97;69.24
71917;BME280;59793;46.506;6.674;2024-01-30T11:54:31;98778.13;;;10.22;68.02
71917;BME280;59793;46.506;6.674;2024-01-30T11:56:56;98784.91;;;10.00;69.82
71917;BME280;59793;46.506;6.674;2024-01-30T11:59:22;98773.47;;;10.33;68.93
71917;BME280;59793;46.506;6.674;2024-01-30T12:01:47;98779.91;;;10.13;68.75
71917;BME280;59793;46.506;6.674;2024-01-30T12:04:13;98738.75;;;10.03;68.67
71917;BME280;59793;46.506;6.674;2024-01-30T12:06:38;98741.25;;;10.22;68.18
71917;BME280;59793;46.506;6.674;2024-01-30T12:09:04;98769.28;;;10.68;67.35
71917;BME280;59793;46.506;6.674;2024-01-30T12:11:30;98751.47;;;10.73;66.89
71917;BME280;59793;46.506;6.674;2024-01-30T12:13:56;98761.50;;;10.85;66.53
71917;BME280;59793;46.506;6.674;2024-01-30T12:16:22;98726.06;;;10.77;66.07
71917;BME280;59793;46.506;6.674;2024-01-30T12:18:48;98755.81;;;10.92;66.65
71917;BME280;59793;46.506;6.674;2024-01-30T12:21:16;98718.34;;;10.59;66.64
71917;BME280;59793;46.506;6.674;2024-01-30T12:23:41;98707.59;;;10.33;67.52
71917;BME280;59793;46.506;6.674;2024-01-30T12:26:07;98729.59;;;10.50;67.59
71917;BME280;59793;46.506;6.674;2024-01-30T12:28:33;98725.41;;;10.49;67.78
71917;BME280;59793;46.506;6.674;2024-01-30T12:31:02;98723.75;;;10.76;66.89
71917;BME280;59793;46.506;6.674;2024-01-30T12:33:29;98707.06;;;10.89;66.38
71917;BME280;59793;46.506;6.674;2024-01-30T12:35:54;98701.16;;;11.15;65.28
71917;BME280;59793;46.506;6.674;2024-01-30T12:38:20;98744.28;;;11.41;65.51
71917;BME280;59793;46.506;6.674;2024-01-30T12:40:45;98703.34;;;11.53;64.49
71917;BME280;59793;46.506;6.674;2024-01-30T12:43:13;98711.22;;;11.92;64.07
71917;BME280;59793;46.506;6.674;2024-01-30T12:45:38;98704.59;;;12.30;62.11
71917;BME280;59793;46.506;6.674;2024-01-30T12:48:04;98726.69;;;12.51;61.61
71917;BME280;59793;46.506;6.674;2024-01-30T12:50:30;98701.16;;;12.12;62.75
71917;BME280;59793;46.506;6.674;2024-01-30T12:52:55;98714.06;;;12.74;61.44
71917;BME280;59793;46.506;6.674;2024-01-30T12:55:21;98718.44;;;13.43;59.53
71917;BME280;59793;46.506;6.674;2024-01-30T12:57:46;98715.59;;;14.07;57.33
71917;BME280;59793;46.506;6.674;2024-01-30T13:00:11;98711.97;;;14.33;56.07
71917;BME280;59793;46.506;6.674;2024-01-30T13:02:37;98710.75;;;14.51;55.36
71917;BME280;59793;46.506;6.674;2024-01-30T13:05:03;98712.75;;;14.54;56.52
71917;BME280;59793;46.506;6.674;2024-01-30T13:07:29;98715.88;;;14.06;56.42